HKMO/MBA METAR and TAF weather

Enter ICAO airport designator
Station Type Date Time Source
HKMO METAR 2018/04/19 13:00 UTC NOAA

HKMO 191300Z 17007KT 9999 FEW025 SCT100 31/23 Q1010 NOSIG


Station Type Date Time Source
HKMO Decoded METAR 2018/04/19 13:00 UTC NOAA

Mombasa, Kenya (HKMO) 04-02S 039-37E 55M
Apr 19, 2018 - 09:00 AM EDT / 2018.04.19 1300 UTC
Wind: from the S (170 degrees) at 8 MPH (7 KT):0
Visibility: greater than 7 mile(s):0
Sky conditions: partly cloudy
Temperature: 87 F (31 C)
Heat index: 93.9 F (34.4 C):1
Dew Point: 73 F (23 C)
Relative Humidity: 62%
Pressure (altimeter): 29.83 in. Hg (1010 hPa)
ob: HKMO 191300Z 17007KT 9999 FEW025 SCT100 31/23 Q1010 NOSIG
cycle: 13

Station Type Date Time Source
HKMO TAF 2018/04/19 12:54 UTC NOAA

TAF HKMO 191100Z 1912/2018 21010KT 9999 FEW026 SCT090
BECMG 1919/1922 21005KT FEW021
BECMG 2000/2006 24005KT FEW019 BKN080


Example: see airport list